createdAt,value
2018-09-19T00:01:11.440Z,99057.13
2018-09-19T00:03:40.749Z,99061.38
2018-09-19T00:06:09.938Z,99054.66
2018-09-19T00:08:38.437Z,99051.73
2018-09-19T00:11:08.005Z,99059.70
2018-09-19T00:13:36.487Z,99061.63
2018-09-19T00:16:09.193Z,99071.62
2018-09-19T00:18:38.027Z,99077.32
2018-09-19T00:21:07.479Z,99080.02
2018-09-19T00:23:37.213Z,99084.21
2018-09-19T00:26:05.898Z,99083.47
2018-09-19T00:28:35.238Z,99087.60
2018-09-19T00:31:03.959Z,99086.49
2018-09-19T00:33:32.676Z,99085.90
2018-09-19T00:36:02.812Z,99084.95
2018-09-19T00:38:31.342Z,99085.15
2018-09-19T00:40:59.826Z,99087.48
2018-09-19T00:43:29.223Z,99089.79
2018-09-19T00:45:59.544Z,99096.05
2018-09-19T00:48:29.862Z,99099.77
2018-09-19T00:50:58.338Z,99093.31
2018-09-19T00:53:26.774Z,99098.16
2018-09-19T00:55:56.449Z,99097.48
2018-09-19T00:58:25.559Z,99104.38
2018-09-19T01:00:54.245Z,99104.23
2018-09-19T01:03:24.326Z,99104.80
2018-09-19T01:05:53.521Z,99105.93
2018-09-19T01:08:21.985Z,99108.73
2018-09-19T01:10:51.936Z,99108.64
2018-09-19T01:13:20.420Z,99109.03
2018-09-19T01:15:49.830Z,99114.15
2018-09-19T01:18:19.159Z,99114.30
2018-09-19T01:20:47.644Z,99113.84
2018-09-19T01:23:16.413Z,99114.89
2018-09-19T01:25:45.311Z,99117.27
2018-09-19T01:28:14.026Z,99125.09
2018-09-19T01:30:42.849Z,99131.39
2018-09-19T01:33:12.380Z,99131.20
2018-09-19T01:35:40.846Z,99132.15
2018-09-19T01:38:09.586Z,99130.69
2018-09-19T01:40:38.636Z,99128.72
2018-09-19T01:43:07.108Z,99134.78
2018-09-19T01:45:36.474Z,99133.18
2018-09-19T01:48:06.097Z,99133.42
2018-09-19T01:50:35.986Z,99136.66
2018-09-19T01:53:06.168Z,99140.77
2018-09-19T01:55:35.287Z,99136.05
2018-09-19T01:58:04.683Z,99125.88
2018-09-19T02:00:35.128Z,99133.26
2018-09-19T02:03:03.590Z,99142.27
2018-09-19T02:05:33.017Z,99146.48
2018-09-19T02:08:02.168Z,99151.16
2018-09-19T02:10:30.895Z,99152.89
2018-09-19T02:12:59.649Z,99162.77
2018-09-19T02:15:28.107Z,99154.61
2018-09-19T02:17:57.938Z,99164.14
2018-09-19T02:20:26.389Z,99154.91
2018-09-19T02:22:55.250Z,99158.58
2018-09-19T02:25:23.720Z,99163.80
2018-09-19T02:27:54.329Z,99159.68
2018-09-19T02:30:23.314Z,99167.98
2018-09-19T02:32:52.312Z,99158.38
2018-09-19T02:35:22.757Z,99156.25
2018-09-19T02:37:52.186Z,99156.40
2018-09-19T02:40:20.644Z,99158.02
2018-09-19T02:42:49.125Z,99154.79
2018-09-19T02:45:19.358Z,99151.16
2018-09-19T02:47:47.808Z,99156.33
2018-09-19T02:50:17.216Z,99151.46
2018-09-19T02:52:50.067Z,99152.45
2018-09-19T02:55:19.794Z,99156.03
2018-09-19T02:57:48.276Z,99160.52
2018-09-19T03:00:17.159Z,99158.38
2018-09-19T03:02:46.713Z,99157.73
2018-09-19T03:05:15.187Z,99167.81
2018-09-19T03:07:46.302Z,99166.95
2018-09-19T03:10:15.644Z,99161.91
2018-09-19T03:12:44.939Z,99164.36
2018-09-19T03:15:14.546Z,99167.86
2018-09-19T03:17:44.411Z,99163.02
2018-09-19T03:20:12.967Z,99175.30
2018-09-19T03:22:41.751Z,99179.52
2018-09-19T03:25:10.791Z,99174.56
2018-09-19T03:27:40.920Z,99185.02
2018-09-19T03:30:09.404Z,99178.18
2018-09-19T03:32:38.125Z,99172.03
2018-09-19T03:35:09.749Z,99177.33
2018-09-19T03:37:39.655Z,99172.12
2018-09-19T03:40:08.771Z,99163.95
2018-09-19T03:42:37.972Z,99176.13
2018-09-19T03:45:06.528Z,99165.58
2018-09-19T03:47:35.001Z,99173.09
2018-09-19T03:50:03.946Z,99177.33
2018-09-19T03:52:33.627Z,99175.36
2018-09-19T03:55:02.181Z,99184.33
2018-09-19T03:57:30.903Z,99172.13
2018-09-19T04:00:00.316Z,99183.59
2018-09-19T04:02:30.197Z,99185.06
2018-09-19T04:04:58.869Z,99185.20
2018-09-19T04:07:30.050Z,99194.22
2018-09-19T04:10:00.420Z,99192.87
2018-09-19T04:12:28.953Z,99198.84
2018-09-19T04:14:57.933Z,99195.27
2018-09-19T04:17:26.464Z,99203.16
2018-09-19T04:19:55.269Z,99202.54
2018-09-19T04:22:27.683Z,99208.92
2018-09-19T04:24:56.141Z,99208.23
2018-09-19T04:27:24.935Z,99203.25
2018-09-19T04:29:53.907Z,99205.91
2018-09-19T04:32:24.252Z,99205.48
2018-09-19T04:34:54.208Z,99211.60
2018-09-19T04:37:22.698Z,99209.40
2018-09-19T04:39:51.899Z,99208.92
2018-09-19T04:42:20.735Z,99219.84
2018-09-19T04:44:50.331Z,99219.20
2018-09-19T04:47:19.607Z,99218.48
2018-09-19T04:49:48.723Z,99225.52
2018-09-19T04:52:17.217Z,99224.48
2018-09-19T04:54:46.168Z,99233.20
2018-09-19T04:57:14.627Z,99229.83
2018-09-19T04:59:44.333Z,99234.05
2018-09-19T05:02:13.262Z,99231.20
2018-09-19T05:04:42.641Z,99227.02
2018-09-19T05:07:11.376Z,99234.16
2018-09-19T05:09:41.125Z,99238.28
2018-09-19T05:12:09.571Z,99238.66
2018-09-19T05:14:38.452Z,99234.09
2018-09-19T05:17:08.236Z,99245.55
2018-09-19T05:19:38.035Z,99243.06
2018-09-19T05:22:08.049Z,99239.75
2018-09-19T05:24:38.792Z,99243.77
2018-09-19T05:27:07.649Z,99240.67
2018-09-19T05:29:36.992Z,99253.63
2018-09-19T05:32:06.154Z,99251.93
2018-09-19T05:34:34.659Z,99253.27
2018-09-19T05:37:03.586Z,99262.03
2018-09-19T05:39:32.098Z,99260.48
2018-09-19T05:42:01.331Z,99266.12
2018-09-19T05:44:30.032Z,99272.98
2018-09-19T05:46:58.498Z,99273.09
2018-09-19T05:49:27.395Z,99262.17
2018-09-19T05:51:55.820Z,99261.86
2018-09-19T05:54:24.396Z,99266.33
2018-09-19T05:56:52.792Z,99268.30
2018-09-19T05:59:21.335Z,99277.91
2018-09-19T06:01:55.427Z,99275.23
2018-09-19T06:04:24.219Z,99277.53
2018-09-19T06:06:53.077Z,99270.80
2018-09-19T06:09:23.035Z,99270.77
2018-09-19T06:11:52.165Z,99270.16
2018-09-19T06:14:20.935Z,99272.78
2018-09-19T06:16:49.603Z,99274.75
2018-09-19T06:19:18.781Z,99270.20
2018-09-19T06:21:49.402Z,99276.40
2018-09-19T06:24:17.842Z,99277.16
2018-09-19T06:26:46.458Z,99277.86
2018-09-19T06:29:15.401Z,99274.98
2018-09-19T06:31:44.733Z,99278.17
2018-09-19T06:34:13.936Z,99274.91
2018-09-19T06:36:43.290Z,99274.52
2018-09-19T06:39:12.540Z,99273.91
2018-09-19T06:41:42.468Z,99279.67
2018-09-19T06:44:11.298Z,99285.41
2018-09-19T06:46:40.689Z,99279.30
2018-09-19T06:49:09.622Z,99283.56
2018-09-19T06:51:39.430Z,99277.59
2018-09-19T06:54:08.798Z,99282.22
2018-09-19T06:56:37.704Z,99279.55
2018-09-19T06:59:06.497Z,99284.16
2018-09-19T07:01:35.360Z,99273.56
2018-09-19T07:04:05.003Z,99274.30
2018-09-19T07:06:33.452Z,99275.31
2018-09-19T07:09:02.202Z,99277.97
2018-09-19T07:11:32.313Z,99287.28
2018-09-19T07:14:05.652Z,99285.86
2018-09-19T07:16:35.133Z,99292.42
2018-09-19T07:19:04.360Z,99295.29
2018-09-19T07:21:33.501Z,99286.88
2018-09-19T07:24:02.206Z,99286.36
2018-09-19T07:26:31.652Z,99291.39
2018-09-19T07:29:00.744Z,99288.58
2018-09-19T07:31:29.253Z,99292.98
2018-09-19T07:33:58.049Z,99297.44
2018-09-19T07:36:26.787Z,99298.55
2018-09-19T07:38:56.226Z,99309.30
2018-09-19T07:41:24.940Z,99304.20
2018-09-19T07:43:53.750Z,99304.88
2018-09-19T07:46:22.735Z,99311.59
2018-09-19T07:48:53.693Z,99317.41
2018-09-19T07:51:22.167Z,99318.58
2018-09-19T07:53:50.977Z,99318.42
2018-09-19T07:56:19.481Z,99320.75
2018-09-19T07:58:48.271Z,99329.42
2018-09-19T08:01:18.368Z,99338.49
2018-09-19T08:03:47.134Z,99334.19
2018-09-19T08:06:15.736Z,99330.48
2018-09-19T08:08:44.722Z,99327.08
2018-09-19T08:11:13.269Z,99330.67
2018-09-19T08:13:45.522Z,99333.25
2018-09-19T08:16:14.352Z,99328.36
2018-09-19T08:18:42.885Z,99327.58
2018-09-19T08:21:11.427Z,99329.59
2018-09-19T08:23:39.864Z,99326.04
2018-09-19T08:26:08.322Z,99331.02
2018-09-19T08:28:37.155Z,99324.28
2018-09-19T08:31:10.045Z,99323.20
2018-09-19T08:33:38.755Z,99326.48
2018-09-19T08:36:07.287Z,99327.50
2018-09-19T08:38:36.292Z,99323.03
2018-09-19T08:41:05.193Z,99325.73
2018-09-19T08:43:33.898Z,99332.48
2018-09-19T08:46:02.623Z,99325.05
2018-09-19T08:48:32.037Z,99318.10
2018-09-19T08:51:00.730Z,99313.86
2018-09-19T08:53:29.505Z,99308.53
2018-09-19T08:55:58.044Z,99307.64
2018-09-19T08:58:28.058Z,99302.56
2018-09-19T09:00:57.919Z,99304.42
2018-09-19T09:03:28.809Z,99307.24
2018-09-19T09:05:57.937Z,99304.06
2018-09-19T09:08:26.664Z,99312.91
2018-09-19T09:10:55.240Z,99321.91
2018-09-19T09:13:24.329Z,99317.98
2018-09-19T09:15:54.206Z,99329.36
2018-09-19T09:18:25.845Z,99321.82
2018-09-19T09:20:54.510Z,99326.96
2018-09-19T09:23:24.229Z,99338.17
2018-09-19T09:25:54.042Z,99327.30
2018-09-19T09:28:23.255Z,99320.90
2018-09-19T09:30:51.940Z,99318.17
2018-09-19T09:33:27.479Z,99322.06
2018-09-19T09:35:58.998Z,99318.83
2018-09-19T09:38:28.986Z,99326.31
2018-09-19T09:41:01.368Z,99326.47
2018-09-19T09:43:30.791Z,99327.33
2018-09-19T09:46:01.056Z,99335.45
2018-09-19T09:48:30.158Z,99331.88
2018-09-19T09:51:00.366Z,99330.27
2018-09-19T09:53:28.893Z,99330.37
2018-09-19T09:55:58.080Z,99328.08
2018-09-19T09:58:26.951Z,99331.26
2018-09-19T10:00:55.462Z,99328.00
2018-09-19T10:03:24.847Z,99322.73
2018-09-19T10:05:53.321Z,99331.69
2018-09-19T10:08:22.479Z,99330.45
2018-09-19T10:10:51.352Z,99323.43
2018-09-19T10:13:20.044Z,99320.94
2018-09-19T10:15:49.069Z,99318.13
2018-09-19T10:18:17.686Z,99322.11
2018-09-19T10:20:46.492Z,99321.73
2018-09-19T10:23:15.288Z,99315.97
2018-09-19T10:25:43.816Z,99310.27
2018-09-19T10:28:12.249Z,99304.00
2018-09-19T10:30:42.454Z,99301.73
2018-09-19T10:33:11.052Z,99304.20
2018-09-19T10:35:39.591Z,99296.06
2018-09-19T10:38:09.041Z,99291.71
2018-09-19T10:40:37.869Z,99292.34
2018-09-19T10:43:06.712Z,99297.84
2018-09-19T10:45:35.200Z,99285.41
2018-09-19T10:48:03.700Z,99297.39
2018-09-19T10:50:32.182Z,99277.81
2018-09-19T10:53:00.990Z,99277.87
2018-09-19T10:55:29.479Z,99274.19
2018-09-19T10:57:58.787Z,99262.74
2018-09-19T11:00:32.225Z,99270.20
2018-09-19T11:03:01.244Z,99269.48
2018-09-19T11:05:30.515Z,99268.45
2018-09-19T11:07:58.969Z,99261.34
2018-09-19T11:10:28.182Z,99265.27
2018-09-19T11:12:58.519Z,99261.91
2018-09-19T11:15:27.504Z,99259.88
2018-09-19T11:17:55.980Z,99257.89
2018-09-19T11:20:24.787Z,99262.06
2018-09-19T11:22:53.253Z,99250.55
2018-09-19T11:25:22.230Z,99251.25
2018-09-19T11:27:50.937Z,99250.06
2018-09-19T11:30:20.129Z,99259.83
2018-09-19T11:32:48.951Z,99252.93
2018-09-19T11:35:18.227Z,99246.84
2018-09-19T11:37:47.728Z,99240.25
2018-09-19T11:40:17.850Z,99236.66
2018-09-19T11:42:47.710Z,99227.48
2018-09-19T11:45:16.480Z,99230.17
2018-09-19T11:47:44.970Z,99223.97
2018-09-19T11:50:14.084Z,99226.94
2018-09-19T11:52:44.956Z,99222.54
2018-09-19T11:55:16.593Z,99212.38
2018-09-19T11:57:45.461Z,99213.77
2018-09-19T12:00:14.144Z,99211.23
2018-09-19T12:02:42.614Z,99203.63
2018-09-19T12:05:11.553Z,99190.71
2018-09-19T12:07:40.100Z,99194.36
2018-09-19T12:10:08.844Z,99189.14
2018-09-19T12:12:38.311Z,99188.85
2018-09-19T12:15:07.817Z,99185.25
2018-09-19T12:17:36.538Z,99177.69
2018-09-19T12:20:05.448Z,99175.82
2018-09-19T12:22:34.376Z,99172.08
2018-09-19T12:25:02.871Z,99176.32
2018-09-19T12:27:33.179Z,99181.19
2018-09-19T12:30:01.708Z,99175.59
2018-09-19T12:32:30.528Z,99187.11
2018-09-19T12:34:59.028Z,99207.65
2018-09-19T12:37:27.787Z,99199.55
2018-09-19T12:39:58.488Z,99186.39
2018-09-19T12:42:27.354Z,99183.98
2018-09-19T12:44:57.596Z,99183.86
2018-09-19T12:47:26.040Z,99183.98
2018-09-19T12:49:54.745Z,99179.84
2018-09-19T12:52:23.681Z,99189.05
2018-09-19T12:54:53.794Z,99173.73
2018-09-19T12:57:22.232Z,99188.31
2018-09-19T12:59:52.972Z,99186.24
2018-09-19T13:02:21.509Z,99172.37
2018-09-19T13:04:50.196Z,99179.06
2018-09-19T13:07:19.020Z,99171.75
2018-09-19T13:09:47.972Z,99187.95
2018-09-19T13:12:16.676Z,99183.78
2018-09-19T13:14:45.567Z,99188.31
2018-09-19T13:17:14.023Z,99183.09
2018-09-19T13:19:46.197Z,99171.46
2018-09-19T13:22:14.680Z,99187.39
2018-09-19T13:24:43.389Z,99163.94
2018-09-19T13:27:11.870Z,99188.59
2018-09-19T13:29:40.711Z,99172.59
2018-09-19T13:32:09.190Z,99176.50
2018-09-19T13:34:38.089Z,99169.80
2018-09-19T13:37:07.481Z,99151.55
2018-09-19T13:39:36.187Z,99164.30
2018-09-19T13:42:04.915Z,99162.14
2018-09-19T13:44:33.464Z,99158.55
2018-09-19T13:47:03.088Z,99159.19
2018-09-19T13:49:38.944Z,99155.94
2018-09-19T13:52:07.834Z,99145.57
2018-09-19T13:54:36.676Z,99142.13
2018-09-19T13:57:05.499Z,99148.52
2018-09-19T13:59:33.980Z,99142.61
2018-09-19T14:02:02.456Z,99135.96
2018-09-19T14:04:30.914Z,99139.07
2018-09-19T14:07:00.496Z,99135.31
2018-09-19T14:09:29.537Z,99123.74
2018-09-19T14:11:59.055Z,99132.11
2018-09-19T14:14:27.632Z,99132.66
2018-09-19T14:16:57.569Z,99128.90
2018-09-19T14:19:26.120Z,99127.83
2018-09-19T14:21:55.542Z,99127.82
2018-09-19T14:24:23.961Z,99117.14
2018-09-19T14:26:52.864Z,99128.72
2018-09-19T14:29:21.430Z,99124.48
2018-09-19T14:31:50.757Z,99124.89
2018-09-19T14:34:19.242Z,99110.55
2018-09-19T14:36:47.730Z,99107.95
2018-09-19T14:39:16.594Z,99122.75
2018-09-19T14:41:45.620Z,99123.27
2018-09-19T14:44:15.538Z,99117.34
2018-09-19T14:46:44.030Z,99116.81
2018-09-19T14:49:12.762Z,99119.95
2018-09-19T14:51:41.756Z,99110.30
2018-09-19T14:54:11.469Z,99114.81
2018-09-19T14:56:41.119Z,99109.63
2018-09-19T14:59:09.581Z,99122.06
2018-09-19T15:01:38.068Z,99108.88
2018-09-19T15:04:06.899Z,99107.68
2018-09-19T15:06:35.357Z,99115.38
2018-09-19T15:09:07.135Z,99113.04
2018-09-19T15:11:37.478Z,99109.27
2018-09-19T15:14:06.591Z,99108.20
2018-09-19T15:16:35.390Z,99105.86
2018-09-19T15:19:03.925Z,99114.86
2018-09-19T15:21:37.017Z,99110.84
2018-09-19T15:24:09.647Z,99114.53
2018-09-19T15:26:39.089Z,99108.30
2018-09-19T15:29:07.913Z,99114.38
2018-09-19T15:31:39.416Z,99106.03
2018-09-19T15:34:09.747Z,99103.30
2018-09-19T15:36:38.196Z,99107.61
2018-09-19T15:39:09.132Z,99107.78
2018-09-19T15:41:40.726Z,99116.59
2018-09-19T15:44:09.280Z,99105.09
2018-09-19T15:46:37.857Z,99103.98
2018-09-19T15:49:06.327Z,99118.93
2018-09-19T15:51:35.813Z,99104.45
2018-09-19T15:54:05.213Z,99111.27
2018-09-19T15:56:33.765Z,99113.33
2018-09-19T15:59:02.324Z,99103.81
2018-09-19T16:01:31.897Z,99103.91
2018-09-19T16:04:00.529Z,99108.97
2018-09-19T16:06:30.200Z,99098.73
2018-09-19T16:08:59.356Z,99102.37
2018-09-19T16:11:27.824Z,99093.51
2018-09-19T16:13:56.313Z,99097.08
2018-09-19T16:16:25.484Z,99110.78
2018-09-19T16:18:55.201Z,99105.83
2018-09-19T16:21:25.035Z,99098.09
2018-09-19T16:23:53.786Z,99094.75
2018-09-19T16:26:23.209Z,99093.98
2018-09-19T16:28:52.567Z,99090.66
2018-09-19T16:31:21.392Z,99089.19
2018-09-19T16:33:50.165Z,99091.82
2018-09-19T16:36:19.616Z,99096.19
2018-09-19T16:38:48.124Z,99094.56
2018-09-19T16:41:17.292Z,99100.78
2018-09-19T16:43:45.769Z,99104.55
2018-09-19T16:46:14.987Z,99101.01
2018-09-19T16:48:43.450Z,99100.50
2018-09-19T16:51:12.679Z,99108.75
2018-09-19T16:53:42.444Z,99114.98
2018-09-19T16:56:11.684Z,99109.87
2018-09-19T16:58:40.572Z,99119.20
2018-09-19T17:01:09.044Z,99107.69
2018-09-19T17:03:38.381Z,99115.03
2018-09-19T17:06:07.576Z,99117.55
2018-09-19T17:08:36.045Z,99108.23
2018-09-19T17:11:04.868Z,99113.38
2018-09-19T17:13:33.691Z,99109.94
2018-09-19T17:16:02.376Z,99104.20
2018-09-19T17:18:31.232Z,99111.70
2018-09-19T17:21:00.123Z,99107.22
2018-09-19T17:23:28.593Z,99107.91
2018-09-19T17:25:57.094Z,99112.92
2018-09-19T17:28:26.022Z,99111.44
2018-09-19T17:30:54.809Z,99115.76
2018-09-19T17:33:23.564Z,99114.48
2018-09-19T17:35:52.912Z,99117.51
2018-09-19T17:38:21.629Z,99118.16
2018-09-19T17:40:51.001Z,99122.98
2018-09-19T17:43:19.553Z,99123.36
2018-09-19T17:45:49.576Z,99128.80
2018-09-19T17:48:18.054Z,99130.72
2018-09-19T17:50:46.568Z,99126.28
2018-09-19T17:53:16.581Z,99128.43
2018-09-19T17:55:45.088Z,99129.73
2018-09-19T17:58:14.131Z,99130.51
2018-09-19T18:00:42.745Z,99136.22
2018-09-19T18:03:11.482Z,99138.66
2018-09-19T18:05:41.313Z,99141.59
2018-09-19T18:08:11.095Z,99143.98
2018-09-19T18:10:40.525Z,99150.45
2018-09-19T18:13:08.984Z,99150.34
2018-09-19T18:15:37.906Z,99148.34
2018-09-19T18:18:08.439Z,99147.71
2018-09-19T18:20:38.831Z,99153.30
2018-09-19T18:23:07.629Z,99153.88
2018-09-19T18:25:36.724Z,99155.75
2018-09-19T18:28:05.604Z,99155.09
2018-09-19T18:30:34.689Z,99154.89
2018-09-19T18:33:03.648Z,99156.39
2018-09-19T18:35:32.093Z,99157.14
2018-09-19T18:38:01.103Z,99162.66
2018-09-19T18:40:30.395Z,99160.92
2018-09-19T18:42:59.175Z,99170.54
2018-09-19T18:45:28.065Z,99173.17
2018-09-19T18:47:57.474Z,99177.86
2018-09-19T18:50:25.976Z,99181.93
2018-09-19T18:52:55.072Z,99183.50
2018-09-19T18:55:23.950Z,99181.70
2018-09-19T18:57:53.656Z,99182.26
2018-09-19T19:00:23.122Z,99183.58
2018-09-19T19:02:51.778Z,99183.44
2018-09-19T19:05:20.880Z,99181.08
2018-09-19T19:07:49.676Z,99187.86
2018-09-19T19:10:19.103Z,99188.89
2018-09-19T19:12:47.814Z,99192.46
2018-09-19T19:15:16.534Z,99192.39
2018-09-19T19:17:48.571Z,99190.83
2018-09-19T19:20:17.016Z,99193.78
2018-09-19T19:22:45.801Z,99197.30
2018-09-19T19:25:14.673Z,99197.53
2018-09-19T19:27:43.316Z,99203.63
2018-09-19T19:30:12.148Z,99204.75
2018-09-19T19:32:40.833Z,99205.23
2018-09-19T19:35:10.340Z,99206.11
2018-09-19T19:37:38.961Z,99212.48
2018-09-19T19:40:08.110Z,99211.43
2018-09-19T19:42:36.915Z,99210.61
2018-09-19T19:45:07.306Z,99208.99
2018-09-19T19:47:36.318Z,99212.93
2018-09-19T19:50:05.248Z,99216.84
2018-09-19T19:52:34.521Z,99221.34
2018-09-19T19:55:02.993Z,99216.64
2018-09-19T19:57:32.046Z,99221.09
2018-09-19T20:00:00.493Z,99224.51
2018-09-19T20:02:29.235Z,99221.38
2018-09-19T20:04:58.638Z,99227.62
2018-09-19T20:07:27.409Z,99224.13
2018-09-19T20:09:55.870Z,99232.05
2018-09-19T20:12:24.489Z,99230.89
2018-09-19T20:14:52.925Z,99229.25
2018-09-19T20:17:22.132Z,99234.55
2018-09-19T20:19:57.145Z,99238.09
2018-09-19T20:22:25.701Z,99238.48
2018-09-19T20:24:54.529Z,99234.22
2018-09-19T20:27:23.450Z,99240.09
2018-09-19T20:29:53.643Z,99242.62
2018-09-19T20:32:22.210Z,99245.83
2018-09-19T20:34:51.451Z,99253.41
2018-09-19T20:37:20.678Z,99247.66
2018-09-19T20:39:49.162Z,99248.73
2018-09-19T20:42:18.105Z,99252.22
2018-09-19T20:44:47.016Z,99256.27
2018-09-19T20:47:16.387Z,99253.73
2018-09-19T20:49:46.927Z,99259.16
2018-09-19T20:52:15.720Z,99258.80
2018-09-19T20:54:44.457Z,99254.55
2018-09-19T20:57:13.829Z,99256.20
2018-09-19T20:59:47.764Z,99261.09
2018-09-19T21:02:16.477Z,99256.64
2018-09-19T21:04:45.512Z,99260.70
2018-09-19T21:07:14.228Z,99265.51
2018-09-19T21:09:43.098Z,99263.08
2018-09-19T21:12:13.742Z,99267.13
2018-09-19T21:14:43.089Z,99271.18
2018-09-19T21:17:11.574Z,99270.25
2018-09-19T21:19:41.434Z,99272.47
2018-09-19T21:22:10.893Z,99274.34
2018-09-19T21:24:41.605Z,99280.62
2018-09-19T21:27:11.149Z,99278.44
2018-09-19T21:29:39.664Z,99280.78
2018-09-19T21:32:08.168Z,99287.70
2018-09-19T21:34:37.069Z,99279.43
2018-09-19T21:37:05.765Z,99281.27
2018-09-19T21:39:34.675Z,99283.28
2018-09-19T21:42:06.810Z,99284.58
2018-09-19T21:44:35.528Z,99287.67
2018-09-19T21:47:04.300Z,99285.55
2018-09-19T21:49:33.249Z,99289.12
2018-09-19T21:52:02.194Z,99291.16
2018-09-19T21:54:30.906Z,99299.23
2018-09-19T21:57:00.674Z,99302.44
2018-09-19T21:59:29.385Z,99298.05
2018-09-19T22:01:59.307Z,99293.13
2018-09-19T22:04:27.997Z,99296.51
2018-09-19T22:06:56.452Z,99299.70
2018-09-19T22:09:24.942Z,99304.55
2018-09-19T22:11:54.340Z,99297.83
2018-09-19T22:14:23.097Z,99297.96
2018-09-19T22:16:51.549Z,99293.75
2018-09-19T22:19:20.933Z,99302.18
2018-09-19T22:21:49.393Z,99300.52
2018-09-19T22:24:19.081Z,99295.46
2018-09-19T22:26:47.524Z,99292.27
2018-09-19T22:29:15.997Z,99286.16
2018-09-19T22:31:44.668Z,99290.72
2018-09-19T22:34:14.982Z,99295.41
2018-09-19T22:36:43.815Z,99294.74
2018-09-19T22:39:13.120Z,99291.48
2018-09-19T22:41:42.613Z,99285.72
2018-09-19T22:44:11.793Z,99290.56
2018-09-19T22:46:40.938Z,99290.16
2018-09-19T22:49:10.958Z,99285.85
2018-09-19T22:51:39.632Z,99288.22
2018-09-19T22:54:08.584Z,99286.53
2018-09-19T22:56:37.510Z,99285.23
2018-09-19T22:59:06.912Z,99284.34
2018-09-19T23:01:35.899Z,99281.12
2018-09-19T23:04:05.185Z,99290.38
2018-09-19T23:06:34.106Z,99288.27
2018-09-19T23:09:03.028Z,99285.69
2018-09-19T23:11:32.924Z,99286.03
2018-09-19T23:14:01.612Z,99283.55
2018-09-19T23:16:31.163Z,99292.97
2018-09-19T23:19:00.370Z,99288.88
2018-09-19T23:21:29.081Z,99285.18
2018-09-19T23:23:58.548Z,99289.27
2018-09-19T23:26:28.410Z,99291.91
2018-09-19T23:28:57.097Z,99296.44
2018-09-19T23:31:25.873Z,99293.31
2018-09-19T23:33:54.332Z,99290.22
2018-09-19T23:36:23.041Z,99294.59
2018-09-19T23:38:52.488Z,99293.16
2018-09-19T23:41:20.988Z,99295.01
2018-09-19T23:43:49.586Z,99293.36
2018-09-19T23:46:18.298Z,99297.16
2018-09-19T23:48:48.125Z,99282.86
2018-09-19T23:51:16.924Z,99286.80
2018-09-19T23:53:46.086Z,99291.62
2018-09-19T23:56:15.976Z,99298.42
2018-09-19T23:58:45.639Z,99284.59
